sensor_id;sensor_type;location;lat;lon;timestamp;P1;durP1;ratioP1;P2;durP2;ratioP2
18933;SDS011;9599;53.706;10.384;2023-01-23T00:01:26;2.63;;;2.37;;
18933;SDS011;9599;53.706;10.384;2023-01-23T00:03:56;2.40;;;2.20;;
18933;SDS011;9599;53.706;10.384;2023-01-23T00:06:26;3.90;;;2.30;;
18933;SDS011;9599;53.706;10.384;2023-01-23T00:08:54;3.77;;;2.53;;
18933;SDS011;9599;53.706;10.384;2023-01-23T00:11:25;3.53;;;2.67;;
18933;SDS011;9599;53.706;10.384;2023-01-23T00:13:55;3.57;;;2.80;;
18933;SDS011;9599;53.706;10.384;2023-01-23T00:16:25;5.40;;;2.53;;
18933;SDS011;9599;53.706;10.384;2023-01-23T00:18:54;2.93;;;2.60;;
18933;SDS011;9599;53.706;10.384;2023-01-23T00:21:23;3.63;;;2.77;;
18933;SDS011;9599;53.706;10.384;2023-01-23T00:23:53;5.97;;;2.83;;
18933;SDS011;9599;53.706;10.384;2023-01-23T00:26:25;3.83;;;2.63;;
18933;SDS011;9599;53.706;10.384;2023-01-23T00:28:54;5.30;;;2.43;;
18933;SDS011;9599;53.706;10.384;2023-01-23T00:31:24;3.80;;;2.97;;
18933;SDS011;9599;53.706;10.384;2023-01-23T00:33:53;4.03;;;3.00;;
18933;SDS011;9599;53.706;10.384;2023-01-23T00:36:23;2.63;;;2.40;;
18933;SDS011;9599;53.706;10.384;2023-01-23T00:38:54;2.97;;;2.50;;
18933;SDS011;9599;53.706;10.384;2023-01-23T00:41:22;4.40;;;2.47;;
18933;SDS011;9599;53.706;10.384;2023-01-23T00:43:53;4.80;;;2.53;;
18933;SDS011;9599;53.706;10.384;2023-01-23T00:46:21;3.33;;;2.50;;
18933;SDS011;9599;53.706;10.384;2023-01-23T00:48:49;3.33;;;2.37;;
18933;SDS011;9599;53.706;10.384;2023-01-23T00:51:18;4.27;;;3.10;;
18933;SDS011;9599;53.706;10.384;2023-01-23T00:53:46;4.07;;;2.73;;
18933;SDS011;9599;53.706;10.384;2023-01-23T00:56:14;5.00;;;3.07;;
18933;SDS011;9599;53.706;10.384;2023-01-23T00:58:42;3.90;;;3.27;;
18933;SDS011;9599;53.706;10.384;2023-01-23T01:01:13;3.53;;;2.50;;
18933;SDS011;9599;53.706;10.384;2023-01-23T01:03:42;3.30;;;2.60;;
18933;SDS011;9599;53.706;10.384;2023-01-23T01:06:11;5.40;;;2.60;;
18933;SDS011;9599;53.706;10.384;2023-01-23T01:08:39;2.93;;;2.30;;
18933;SDS011;9599;53.706;10.384;2023-01-23T01:11:07;5.20;;;2.77;;
18933;SDS011;9599;53.706;10.384;2023-01-23T01:13:35;4.20;;;2.67;;
18933;SDS011;9599;53.706;10.384;2023-01-23T01:16:04;3.87;;;2.80;;
18933;SDS011;9599;53.706;10.384;2023-01-23T01:18:36;4.60;;;2.90;;
18933;SDS011;9599;53.706;10.384;2023-01-23T01:21:05;4.63;;;3.20;;
18933;SDS011;9599;53.706;10.384;2023-01-23T01:23:34;4.57;;;3.37;;
18933;SDS011;9599;53.706;10.384;2023-01-23T01:26:03;4.53;;;3.23;;
18933;SDS011;9599;53.706;10.384;2023-01-23T01:28:32;5.53;;;3.17;;
18933;SDS011;9599;53.706;10.384;2023-01-23T01:31:04;4.53;;;3.07;;
18933;SDS011;9599;53.706;10.384;2023-01-23T01:33:35;5.30;;;3.40;;
18933;SDS011;9599;53.706;10.384;2023-01-23T01:36:07;3.97;;;3.30;;
18933;SDS011;9599;53.706;10.384;2023-01-23T01:38:36;5.50;;;3.00;;
18933;SDS011;9599;53.706;10.384;2023-01-23T01:41:05;4.73;;;3.23;;
18933;SDS011;9599;53.706;10.384;2023-01-23T01:43:34;4.67;;;2.93;;
18933;SDS011;9599;53.706;10.384;2023-01-23T01:46:04;3.60;;;3.00;;
18933;SDS011;9599;53.706;10.384;2023-01-23T01:48:37;4.60;;;3.20;;
18933;SDS011;9599;53.706;10.384;2023-01-23T01:51:10;4.27;;;3.07;;
18933;SDS011;9599;53.706;10.384;2023-01-23T01:53:41;9.33;;;3.70;;
18933;SDS011;9599;53.706;10.384;2023-01-23T01:56:11;5.77;;;3.93;;
18933;SDS011;9599;53.706;10.384;2023-01-23T01:58:41;5.77;;;3.83;;
18933;SDS011;9599;53.706;10.384;2023-01-23T02:01:13;6.57;;;4.03;;
18933;SDS011;9599;53.706;10.384;2023-01-23T02:03:43;8.83;;;4.00;;
18933;SDS011;9599;53.706;10.384;2023-01-23T02:06:12;6.37;;;4.33;;
18933;SDS011;9599;53.706;10.384;2023-01-23T02:08:42;8.77;;;4.90;;
18933;SDS011;9599;53.706;10.384;2023-01-23T02:11:13;8.87;;;4.80;;
18933;SDS011;9599;53.706;10.384;2023-01-23T02:13:43;6.27;;;4.50;;
18933;SDS011;9599;53.706;10.384;2023-01-23T02:16:12;8.50;;;4.60;;
18933;SDS011;9599;53.706;10.384;2023-01-23T02:18:45;7.23;;;5.00;;
18933;SDS011;9599;53.706;10.384;2023-01-23T02:21:16;6.27;;;4.23;;
18933;SDS011;9599;53.706;10.384;2023-01-23T02:23:54;8.50;;;5.37;;
18933;SDS011;9599;53.706;10.384;2023-01-23T02:26:36;7.37;;;4.43;;
18933;SDS011;9599;53.706;10.384;2023-01-23T02:29:07;7.17;;;4.80;;
18933;SDS011;9599;53.706;10.384;2023-01-23T02:31:45;8.87;;;5.20;;
18933;SDS011;9599;53.706;10.384;2023-01-23T02:34:15;6.03;;;4.43;;
18933;SDS011;9599;53.706;10.384;2023-01-23T02:36:44;6.90;;;5.00;;
18933;SDS011;9599;53.706;10.384;2023-01-23T02:39:16;6.10;;;4.13;;
18933;SDS011;9599;53.706;10.384;2023-01-23T02:41:51;7.40;;;4.17;;
18933;SDS011;9599;53.706;10.384;2023-01-23T02:44:27;6.33;;;4.23;;
18933;SDS011;9599;53.706;10.384;2023-01-23T02:47:01;6.60;;;4.60;;
18933;SDS011;9599;53.706;10.384;2023-01-23T02:49:33;7.17;;;4.50;;
18933;SDS011;9599;53.706;10.384;2023-01-23T02:52:03;5.20;;;4.07;;
18933;SDS011;9599;53.706;10.384;2023-01-23T02:54:34;7.03;;;4.63;;
18933;SDS011;9599;53.706;10.384;2023-01-23T02:57:03;6.33;;;4.40;;
18933;SDS011;9599;53.706;10.384;2023-01-23T02:59:32;7.83;;;4.50;;
18933;SDS011;9599;53.706;10.384;2023-01-23T03:02:18;5.80;;;3.83;;
18933;SDS011;9599;53.706;10.384;2023-01-23T03:04:47;9.13;;;5.10;;
18933;SDS011;9599;53.706;10.384;2023-01-23T03:07:16;6.30;;;4.10;;
18933;SDS011;9599;53.706;10.384;2023-01-23T03:09:43;6.57;;;4.57;;
18933;SDS011;9599;53.706;10.384;2023-01-23T03:12:16;5.97;;;4.40;;
18933;SDS011;9599;53.706;10.384;2023-01-23T03:14:44;6.17;;;4.30;;
18933;SDS011;9599;53.706;10.384;2023-01-23T03:17:13;8.97;;;4.20;;
18933;SDS011;9599;53.706;10.384;2023-01-23T03:19:41;7.67;;;4.07;;
18933;SDS011;9599;53.706;10.384;2023-01-23T03:22:09;6.70;;;4.83;;
18933;SDS011;9599;53.706;10.384;2023-01-23T03:24:38;6.23;;;4.70;;
18933;SDS011;9599;53.706;10.384;2023-01-23T03:27:06;8.60;;;5.07;;
18933;SDS011;9599;53.706;10.384;2023-01-23T03:29:41;9.43;;;5.57;;
18933;SDS011;9599;53.706;10.384;2023-01-23T03:32:27;10.57;;;5.73;;
18933;SDS011;9599;53.706;10.384;2023-01-23T03:34:56;8.97;;;5.70;;
18933;SDS011;9599;53.706;10.384;2023-01-23T03:37:25;10.03;;;5.70;;
18933;SDS011;9599;53.706;10.384;2023-01-23T03:39:54;8.57;;;5.47;;
18933;SDS011;9599;53.706;10.384;2023-01-23T03:42:40;9.23;;;5.97;;
18933;SDS011;9599;53.706;10.384;2023-01-23T03:45:12;9.33;;;6.10;;
18933;SDS011;9599;53.706;10.384;2023-01-23T03:47:40;12.53;;;7.67;;
18933;SDS011;9599;53.706;10.384;2023-01-23T03:50:09;8.40;;;5.97;;
18933;SDS011;9599;53.706;10.384;2023-01-23T03:52:38;9.40;;;5.90;;
18933;SDS011;9599;53.706;10.384;2023-01-23T03:55:07;10.83;;;6.00;;
18933;SDS011;9599;53.706;10.384;2023-01-23T03:57:36;10.87;;;5.90;;
18933;SDS011;9599;53.706;10.384;2023-01-23T04:00:13;10.40;;;6.23;;
18933;SDS011;9599;53.706;10.384;2023-01-23T04:02:51;10.93;;;5.70;;
18933;SDS011;9599;53.706;10.384;2023-01-23T04:05:19;10.47;;;6.20;;
18933;SDS011;9599;53.706;10.384;2023-01-23T04:07:47;9.73;;;6.20;;
18933;SDS011;9599;53.706;10.384;2023-01-23T04:10:15;8.67;;;5.63;;
18933;SDS011;9599;53.706;10.384;2023-01-23T04:12:49;10.20;;;5.93;;
18933;SDS011;9599;53.706;10.384;2023-01-23T04:15:18;9.47;;;5.87;;
18933;SDS011;9599;53.706;10.384;2023-01-23T04:17:48;9.93;;;5.97;;
18933;SDS011;9599;53.706;10.384;2023-01-23T04:20:16;10.90;;;6.50;;
18933;SDS011;9599;53.706;10.384;2023-01-23T04:22:45;12.97;;;5.97;;
18933;SDS011;9599;53.706;10.384;2023-01-23T04:25:13;11.53;;;6.43;;
18933;SDS011;9599;53.706;10.384;2023-01-23T04:27:42;10.87;;;6.10;;
18933;SDS011;9599;53.706;10.384;2023-01-23T04:30:11;13.33;;;7.80;;
18933;SDS011;9599;53.706;10.384;2023-01-23T04:32:41;12.03;;;6.83;;
18933;SDS011;9599;53.706;10.384;2023-01-23T04:35:09;12.00;;;6.67;;
18933;SDS011;9599;53.706;10.384;2023-01-23T04:37:39;12.30;;;7.07;;
18933;SDS011;9599;53.706;10.384;2023-01-23T04:40:08;14.13;;;6.90;;
18933;SDS011;9599;53.706;10.384;2023-01-23T04:42:47;10.60;;;6.57;;
18933;SDS011;9599;53.706;10.384;2023-01-23T04:45:29;12.93;;;6.87;;
18933;SDS011;9599;53.706;10.384;2023-01-23T04:48:11;10.87;;;6.47;;
18933;SDS011;9599;53.706;10.384;2023-01-23T04:50:39;12.57;;;7.10;;
18933;SDS011;9599;53.706;10.384;2023-01-23T04:53:07;18.87;;;8.73;;
18933;SDS011;9599;53.706;10.384;2023-01-23T04:55:37;21.63;;;10.23;;
18933;SDS011;9599;53.706;10.384;2023-01-23T04:58:07;17.53;;;8.73;;
18933;SDS011;9599;53.706;10.384;2023-01-23T05:00:38;12.87;;;7.57;;
18933;SDS011;9599;53.706;10.384;2023-01-23T05:03:06;12.87;;;7.10;;
18933;SDS011;9599;53.706;10.384;2023-01-23T05:05:42;14.73;;;7.97;;
18933;SDS011;9599;53.706;10.384;2023-01-23T05:08:11;13.60;;;7.47;;
18933;SDS011;9599;53.706;10.384;2023-01-23T05:10:43;13.27;;;7.77;;
18933;SDS011;9599;53.706;10.384;2023-01-23T05:13:12;13.37;;;7.90;;
18933;SDS011;9599;53.706;10.384;2023-01-23T05:15:42;15.40;;;8.13;;
18933;SDS011;9599;53.706;10.384;2023-01-23T05:18:11;16.73;;;8.47;;
18933;SDS011;9599;53.706;10.384;2023-01-23T05:20:39;15.73;;;7.53;;
18933;SDS011;9599;53.706;10.384;2023-01-23T05:23:08;13.30;;;7.63;;
18933;SDS011;9599;53.706;10.384;2023-01-23T05:25:46;14.13;;;8.07;;
18933;SDS011;9599;53.706;10.384;2023-01-23T05:28:14;12.30;;;7.50;;
18933;SDS011;9599;53.706;10.384;2023-01-23T05:30:47;14.53;;;7.77;;
18933;SDS011;9599;53.706;10.384;2023-01-23T05:33:24;18.97;;;7.77;;
18933;SDS011;9599;53.706;10.384;2023-01-23T05:35:52;14.03;;;8.60;;
18933;SDS011;9599;53.706;10.384;2023-01-23T05:38:26;13.37;;;8.00;;
18933;SDS011;9599;53.706;10.384;2023-01-23T05:40:54;16.77;;;8.53;;
18933;SDS011;9599;53.706;10.384;2023-01-23T05:43:41;14.87;;;8.47;;
18933;SDS011;9599;53.706;10.384;2023-01-23T05:46:41;13.67;;;8.20;;
18933;SDS011;9599;53.706;10.384;2023-01-23T05:49:11;16.53;;;8.47;;
18933;SDS011;9599;53.706;10.384;2023-01-23T05:51:39;13.73;;;8.07;;
18933;SDS011;9599;53.706;10.384;2023-01-23T05:54:10;16.37;;;8.40;;
18933;SDS011;9599;53.706;10.384;2023-01-23T05:56:43;16.27;;;8.33;;
18933;SDS011;9599;53.706;10.384;2023-01-23T05:59:30;15.17;;;7.90;;
18933;SDS011;9599;53.706;10.384;2023-01-23T06:02:19;15.60;;;8.23;;
18933;SDS011;9599;53.706;10.384;2023-01-23T06:05:09;13.00;;;7.67;;
18933;SDS011;9599;53.706;10.384;2023-01-23T06:07:57;15.20;;;7.83;;
18933;SDS011;9599;53.706;10.384;2023-01-23T06:10:26;15.30;;;8.30;;
18933;SDS011;9599;53.706;10.384;2023-01-23T06:12:55;14.00;;;7.77;;
18933;SDS011;9599;53.706;10.384;2023-01-23T06:15:24;16.80;;;8.40;;
18933;SDS011;9599;53.706;10.384;2023-01-23T06:17:54;14.97;;;8.40;;
18933;SDS011;9599;53.706;10.384;2023-01-23T06:20:24;16.63;;;8.80;;
18933;SDS011;9599;53.706;10.384;2023-01-23T06:22:52;14.07;;;7.97;;
18933;SDS011;9599;53.706;10.384;2023-01-23T06:25:20;13.83;;;8.27;;
18933;SDS011;9599;53.706;10.384;2023-01-23T06:27:52;15.13;;;8.17;;
18933;SDS011;9599;53.706;10.384;2023-01-23T06:30:22;16.67;;;8.27;;
18933;SDS011;9599;53.706;10.384;2023-01-23T06:32:50;16.53;;;8.33;;
18933;SDS011;9599;53.706;10.384;2023-01-23T06:35:25;17.53;;;8.87;;
18933;SDS011;9599;53.706;10.384;2023-01-23T06:37:53;15.77;;;8.97;;
18933;SDS011;9599;53.706;10.384;2023-01-23T06:40:23;16.30;;;9.03;;
18933;SDS011;9599;53.706;10.384;2023-01-23T06:43:08;21.80;;;11.60;;
18933;SDS011;9599;53.706;10.384;2023-01-23T06:45:36;16.40;;;9.60;;
18933;SDS011;9599;53.706;10.384;2023-01-23T06:48:04;16.60;;;9.63;;
18933;SDS011;9599;53.706;10.384;2023-01-23T06:50:33;19.40;;;11.27;;
18933;SDS011;9599;53.706;10.384;2023-01-23T06:53:01;22.60;;;10.93;;
18933;SDS011;9599;53.706;10.384;2023-01-23T06:55:31;14.17;;;8.60;;
18933;SDS011;9599;53.706;10.384;2023-01-23T06:57:59;18.90;;;10.20;;
18933;SDS011;9599;53.706;10.384;2023-01-23T07:00:30;20.47;;;10.30;;
18933;SDS011;9599;53.706;10.384;2023-01-23T07:03:01;17.60;;;10.20;;
18933;SDS011;9599;53.706;10.384;2023-01-23T07:05:30;15.50;;;8.83;;
18933;SDS011;9599;53.706;10.384;2023-01-23T07:08:02;14.47;;;8.53;;
18933;SDS011;9599;53.706;10.384;2023-01-23T07:10:30;14.83;;;8.40;;
18933;SDS011;9599;53.706;10.384;2023-01-23T07:13:00;15.43;;;8.53;;
18933;SDS011;9599;53.706;10.384;2023-01-23T07:15:28;14.60;;;8.60;;
18933;SDS011;9599;53.706;10.384;2023-01-23T07:17:57;14.00;;;8.23;;
18933;SDS011;9599;53.706;10.384;2023-01-23T07:20:26;20.03;;;9.67;;
18933;SDS011;9599;53.706;10.384;2023-01-23T07:22:57;25.43;;;13.33;;
18933;SDS011;9599;53.706;10.384;2023-01-23T07:25:25;18.67;;;10.70;;
18933;SDS011;9599;53.706;10.384;2023-01-23T07:27:53;18.03;;;8.80;;
18933;SDS011;9599;53.706;10.384;2023-01-23T07:30:21;17.50;;;8.40;;
18933;SDS011;9599;53.706;10.384;2023-01-23T07:32:49;14.33;;;7.87;;
18933;SDS011;9599;53.706;10.384;2023-01-23T07:35:18;15.43;;;7.93;;
18933;SDS011;9599;53.706;10.384;2023-01-23T07:37:47;14.97;;;8.30;;
18933;SDS011;9599;53.706;10.384;2023-01-23T07:40:15;15.57;;;8.63;;
18933;SDS011;9599;53.706;10.384;2023-01-23T07:42:43;14.50;;;8.03;;
18933;SDS011;9599;53.706;10.384;2023-01-23T07:45:12;13.83;;;8.47;;
18933;SDS011;9599;53.706;10.384;2023-01-23T07:47:41;13.50;;;7.80;;
18933;SDS011;9599;53.706;10.384;2023-01-23T07:50:11;16.53;;;8.67;;
18933;SDS011;9599;53.706;10.384;2023-01-23T07:52:41;14.70;;;8.50;;
18933;SDS011;9599;53.706;10.384;2023-01-23T07:55:09;15.53;;;8.37;;
18933;SDS011;9599;53.706;10.384;2023-01-23T07:57:37;15.17;;;8.63;;
18933;SDS011;9599;53.706;10.384;2023-01-23T08:00:05;13.53;;;8.27;;
18933;SDS011;9599;53.706;10.384;2023-01-23T08:02:39;14.70;;;8.33;;
18933;SDS011;9599;53.706;10.384;2023-01-23T08:05:14;15.03;;;8.53;;
18933;SDS011;9599;53.706;10.384;2023-01-23T08:07:44;13.93;;;7.57;;
18933;SDS011;9599;53.706;10.384;2023-01-23T08:10:12;13.77;;;8.60;;
18933;SDS011;9599;53.706;10.384;2023-01-23T08:12:40;17.77;;;9.57;;
18933;SDS011;9599;53.706;10.384;2023-01-23T08:15:08;17.20;;;9.03;;
18933;SDS011;9599;53.706;10.384;2023-01-23T08:17:36;16.97;;;9.17;;
18933;SDS011;9599;53.706;10.384;2023-01-23T08:20:05;17.60;;;8.63;;
18933;SDS011;9599;53.706;10.384;2023-01-23T08:22:35;15.70;;;9.33;;
18933;SDS011;9599;53.706;10.384;2023-01-23T08:25:08;17.43;;;8.67;;
18933;SDS011;9599;53.706;10.384;2023-01-23T08:27:36;14.30;;;8.73;;
18933;SDS011;9599;53.706;10.384;2023-01-23T08:30:05;16.23;;;8.00;;
18933;SDS011;9599;53.706;10.384;2023-01-23T08:32:34;18.27;;;9.57;;
18933;SDS011;9599;53.706;10.384;2023-01-23T08:35:02;15.90;;;9.13;;
18933;SDS011;9599;53.706;10.384;2023-01-23T08:37:31;15.30;;;8.63;;
18933;SDS011;9599;53.706;10.384;2023-01-23T08:39:59;14.30;;;8.87;;
18933;SDS011;9599;53.706;10.384;2023-01-23T08:42:29;15.87;;;8.63;;
18933;SDS011;9599;53.706;10.384;2023-01-23T08:44:57;15.67;;;9.40;;
18933;SDS011;9599;53.706;10.384;2023-01-23T08:47:25;15.47;;;8.77;;
18933;SDS011;9599;53.706;10.384;2023-01-23T08:49:53;14.27;;;8.23;;
18933;SDS011;9599;53.706;10.384;2023-01-23T08:52:21;17.40;;;8.67;;
18933;SDS011;9599;53.706;10.384;2023-01-23T08:54:49;14.57;;;8.27;;
18933;SDS011;9599;53.706;10.384;2023-01-23T08:57:17;15.10;;;8.20;;
18933;SDS011;9599;53.706;10.384;2023-01-23T08:59:46;14.60;;;8.57;;
18933;SDS011;9599;53.706;10.384;2023-01-23T09:02:14;15.67;;;9.27;;
18933;SDS011;9599;53.706;10.384;2023-01-23T09:04:42;15.80;;;8.27;;
18933;SDS011;9599;53.706;10.384;2023-01-23T09:07:10;14.80;;;8.30;;
18933;SDS011;9599;53.706;10.384;2023-01-23T09:09:38;19.27;;;11.23;;
18933;SDS011;9599;53.706;10.384;2023-01-23T09:12:06;22.63;;;11.63;;
18933;SDS011;9599;53.706;10.384;2023-01-23T09:14:34;20.27;;;10.53;;
18933;SDS011;9599;53.706;10.384;2023-01-23T09:17:03;15.90;;;9.33;;
18933;SDS011;9599;53.706;10.384;2023-01-23T09:19:32;17.60;;;9.50;;
18933;SDS011;9599;53.706;10.384;2023-01-23T09:22:00;15.50;;;8.77;;
18933;SDS011;9599;53.706;10.384;2023-01-23T09:24:28;13.70;;;8.90;;
18933;SDS011;9599;53.706;10.384;2023-01-23T09:26:56;15.17;;;8.87;;
18933;SDS011;9599;53.706;10.384;2023-01-23T09:29:24;17.50;;;9.53;;
18933;SDS011;9599;53.706;10.384;2023-01-23T09:31:52;18.63;;;9.57;;
18933;SDS011;9599;53.706;10.384;2023-01-23T09:34:22;19.40;;;9.00;;
18933;SDS011;9599;53.706;10.384;2023-01-23T09:36:50;18.00;;;9.73;;
18933;SDS011;9599;53.706;10.384;2023-01-23T09:39:18;16.93;;;10.07;;
18933;SDS011;9599;53.706;10.384;2023-01-23T09:41:47;19.03;;;10.70;;
18933;SDS011;9599;53.706;10.384;2023-01-23T09:44:16;20.63;;;10.80;;
18933;SDS011;9599;53.706;10.384;2023-01-23T09:46:50;19.57;;;10.17;;
18933;SDS011;9599;53.706;10.384;2023-01-23T09:49:23;20.60;;;11.47;;
18933;SDS011;9599;53.706;10.384;2023-01-23T09:51:55;17.80;;;10.17;;
18933;SDS011;9599;53.706;10.384;2023-01-23T09:54:32;20.93;;;10.50;;
18933;SDS011;9599;53.706;10.384;2023-01-23T09:57:10;19.90;;;10.33;;
18933;SDS011;9599;53.706;10.384;2023-01-23T09:59:42;19.17;;;10.93;;
18933;SDS011;9599;53.706;10.384;2023-01-23T10:02:26;20.37;;;10.83;;
18933;SDS011;9599;53.706;10.384;2023-01-23T10:04:56;20.77;;;10.63;;
18933;SDS011;9599;53.706;10.384;2023-01-23T10:07:38;22.00;;;11.53;;
18933;SDS011;9599;53.706;10.384;2023-01-23T10:13:27;18.73;;;10.60;;
18933;SDS011;9599;53.706;10.384;2023-01-23T10:16:11;24.03;;;10.87;;
18933;SDS011;9599;53.706;10.384;2023-01-23T10:19:13;19.10;;;11.20;;
18933;SDS011;9599;53.706;10.384;2023-01-23T10:21:54;19.27;;;10.40;;
18933;SDS011;9599;53.706;10.384;2023-01-23T10:24:39;20.30;;;10.60;;
18933;SDS011;9599;53.706;10.384;2023-01-23T10:27:16;18.30;;;10.00;;
18933;SDS011;9599;53.706;10.384;2023-01-23T10:29:47;21.50;;;10.87;;
18933;SDS011;9599;53.706;10.384;2023-01-23T10:32:21;20.80;;;11.03;;
18933;SDS011;9599;53.706;10.384;2023-01-23T10:34:53;19.03;;;10.07;;
18933;SDS011;9599;53.706;10.384;2023-01-23T10:37:31;19.80;;;10.97;;
18933;SDS011;9599;53.706;10.384;2023-01-23T10:40:09;22.47;;;11.40;;
18933;SDS011;9599;53.706;10.384;2023-01-23T10:42:40;18.60;;;10.63;;
18933;SDS011;9599;53.706;10.384;2023-01-23T10:45:11;19.20;;;11.27;;
18933;SDS011;9599;53.706;10.384;2023-01-23T10:47:44;19.70;;;12.10;;
18933;SDS011;9599;53.706;10.384;2023-01-23T10:50:31;20.70;;;11.67;;
18933;SDS011;9599;53.706;10.384;2023-01-23T10:53:05;19.47;;;11.50;;
18933;SDS011;9599;53.706;10.384;2023-01-23T10:55:35;20.03;;;11.60;;
18933;SDS011;9599;53.706;10.384;2023-01-23T10:58:26;20.13;;;11.07;;
18933;SDS011;9599;53.706;10.384;2023-01-23T11:00:59;20.37;;;11.80;;
18933;SDS011;9599;53.706;10.384;2023-01-23T11:03:29;22.53;;;12.47;;
18933;SDS011;9599;53.706;10.384;2023-01-23T11:06:01;20.23;;;11.60;;
18933;SDS011;9599;53.706;10.384;2023-01-23T11:08:32;20.17;;;11.07;;
18933;SDS011;9599;53.706;10.384;2023-01-23T11:14:05;20.67;;;12.30;;
18933;SDS011;9599;53.706;10.384;2023-01-23T11:16:37;21.30;;;12.20;;
18933;SDS011;9599;53.706;10.384;2023-01-23T11:19:09;22.57;;;12.23;;
18933;SDS011;9599;53.706;10.384;2023-01-23T11:21:50;21.87;;;12.47;;
18933;SDS011;9599;53.706;10.384;2023-01-23T11:24:25;19.97;;;11.37;;
18933;SDS011;9599;53.706;10.384;2023-01-23T11:27:14;20.03;;;11.60;;
18933;SDS011;9599;53.706;10.384;2023-01-23T11:29:52;20.63;;;11.10;;
18933;SDS011;9599;53.706;10.384;2023-01-23T11:32:40;20.87;;;11.57;;
18933;SDS011;9599;53.706;10.384;2023-01-23T11:35:14;21.50;;;11.60;;
18933;SDS011;9599;53.706;10.384;2023-01-23T11:37:47;20.97;;;11.67;;
18933;SDS011;9599;53.706;10.384;2023-01-23T11:40:17;20.93;;;12.20;;
18933;SDS011;9599;53.706;10.384;2023-01-23T11:42:46;20.33;;;11.67;;
18933;SDS011;9599;53.706;10.384;2023-01-23T11:45:17;21.23;;;11.20;;
18933;SDS011;9599;53.706;10.384;2023-01-23T11:48:04;19.80;;;11.50;;
18933;SDS011;9599;53.706;10.384;2023-01-23T11:50:40;21.57;;;11.37;;
18933;SDS011;9599;53.706;10.384;2023-01-23T11:53:22;21.47;;;11.97;;
18933;SDS011;9599;53.706;10.384;2023-01-23T11:56:19;19.37;;;11.70;;
18933;SDS011;9599;53.706;10.384;2023-01-23T12:02:21;21.77;;;12.60;;
18933;SDS011;9599;53.706;10.384;2023-01-23T12:05:25;19.53;;;10.90;;
18933;SDS011;9599;53.706;10.384;2023-01-23T12:08:15;21.10;;;11.83;;
18933;SDS011;9599;53.706;10.384;2023-01-23T12:10:56;22.40;;;12.17;;
18933;SDS011;9599;53.706;10.384;2023-01-23T12:13:42;19.23;;;11.53;;
18933;SDS011;9599;53.706;10.384;2023-01-23T12:16:20;22.30;;;12.53;;
18933;SDS011;9599;53.706;10.384;2023-01-23T12:18:56;21.03;;;11.50;;
18933;SDS011;9599;53.706;10.384;2023-01-23T12:21:37;20.00;;;11.93;;
18933;SDS011;9599;53.706;10.384;2023-01-23T12:24:15;20.90;;;12.67;;
18933;SDS011;9599;53.706;10.384;2023-01-23T12:26:54;22.83;;;11.87;;
18933;SDS011;9599;53.706;10.384;2023-01-23T12:29:31;21.50;;;12.20;;
18933;SDS011;9599;53.706;10.384;2023-01-23T12:32:28;21.33;;;11.90;;
18933;SDS011;9599;53.706;10.384;2023-01-23T12:35:15;22.67;;;12.90;;
18933;SDS011;9599;53.706;10.384;2023-01-23T12:38:09;21.23;;;12.17;;
18933;SDS011;9599;53.706;10.384;2023-01-23T12:40:50;20.90;;;11.97;;
18933;SDS011;9599;53.706;10.384;2023-01-23T12:43:22;21.20;;;12.00;;
18933;SDS011;9599;53.706;10.384;2023-01-23T12:46:02;20.23;;;11.70;;
18933;SDS011;9599;53.706;10.384;2023-01-23T12:48:36;21.23;;;12.10;;
18933;SDS011;9599;53.706;10.384;2023-01-23T12:51:07;19.87;;;11.97;;
18933;SDS011;9599;53.706;10.384;2023-01-23T12:53:41;20.47;;;11.43;;
18933;SDS011;9599;53.706;10.384;2023-01-23T12:56:12;22.40;;;11.57;;
18933;SDS011;9599;53.706;10.384;2023-01-23T12:58:44;20.50;;;11.20;;
18933;SDS011;9599;53.706;10.384;2023-01-23T13:01:22;19.20;;;11.13;;
18933;SDS011;9599;53.706;10.384;2023-01-23T13:04:06;20.07;;;11.17;;
18933;SDS011;9599;53.706;10.384;2023-01-23T13:06:49;18.60;;;10.13;;
18933;SDS011;9599;53.706;10.384;2023-01-23T13:09:28;19.33;;;10.53;;
18933;SDS011;9599;53.706;10.384;2023-01-23T13:12:07;18.10;;;10.87;;
18933;SDS011;9599;53.706;10.384;2023-01-23T13:14:48;23.30;;;11.67;;
18933;SDS011;9599;53.706;10.384;2023-01-23T13:17:40;22.60;;;12.80;;
18933;SDS011;9599;53.706;10.384;2023-01-23T13:20:18;22.53;;;12.50;;
18933;SDS011;9599;53.706;10.384;2023-01-23T13:23:19;22.63;;;12.83;;
18933;SDS011;9599;53.706;10.384;2023-01-23T13:26:11;21.57;;;11.87;;
18933;SDS011;9599;53.706;10.384;2023-01-23T13:29:02;23.13;;;11.47;;
18933;SDS011;9599;53.706;10.384;2023-01-23T13:31:37;21.67;;;11.87;;
18933;SDS011;9599;53.706;10.384;2023-01-23T13:40:13;22.40;;;11.77;;
18933;SDS011;9599;53.706;10.384;2023-01-23T13:42:43;20.27;;;11.23;;
18933;SDS011;9599;53.706;10.384;2023-01-23T13:51:44;18.57;;;10.80;;
18933;SDS011;9599;53.706;10.384;2023-01-23T13:54:27;21.07;;;10.87;;
18933;SDS011;9599;53.706;10.384;2023-01-23T13:57:28;21.80;;;11.10;;
18933;SDS011;9599;53.706;10.384;2023-01-23T14:00:14;22.73;;;11.27;;
18933;SDS011;9599;53.706;10.384;2023-01-23T14:03:00;21.93;;;11.50;;
18933;SDS011;9599;53.706;10.384;2023-01-23T14:06:13;20.80;;;12.00;;
18933;SDS011;9599;53.706;10.384;2023-01-23T14:08:56;18.67;;;11.17;;
18933;SDS011;9599;53.706;10.384;2023-01-23T14:12:01;22.80;;;11.93;;
18933;SDS011;9599;53.706;10.384;2023-01-23T14:14:58;23.40;;;12.20;;
18933;SDS011;9599;53.706;10.384;2023-01-23T14:17:57;23.33;;;12.33;;
18933;SDS011;9599;53.706;10.384;2023-01-23T14:20:39;26.17;;;12.93;;
18933;SDS011;9599;53.706;10.384;2023-01-23T14:23:15;24.90;;;13.60;;
18933;SDS011;9599;53.706;10.384;2023-01-23T14:25:52;29.77;;;12.77;;
18933;SDS011;9599;53.706;10.384;2023-01-23T14:28:20;25.73;;;13.30;;
18933;SDS011;9599;53.706;10.384;2023-01-23T14:30:51;26.43;;;13.17;;
18933;SDS011;9599;53.706;10.384;2023-01-23T14:33:20;26.87;;;12.77;;
18933;SDS011;9599;53.706;10.384;2023-01-23T14:35:49;25.97;;;12.73;;
18933;SDS011;9599;53.706;10.384;2023-01-23T14:38:21;25.87;;;13.33;;
18933;SDS011;9599;53.706;10.384;2023-01-23T14:40:56;24.33;;;12.40;;
18933;SDS011;9599;53.706;10.384;2023-01-23T14:43:26;21.20;;;11.73;;
18933;SDS011;9599;53.706;10.384;2023-01-23T14:45:59;24.53;;;14.10;;
18933;SDS011;9599;53.706;10.384;2023-01-23T14:48:31;32.97;;;15.07;;
18933;SDS011;9599;53.706;10.384;2023-01-23T14:51:02;25.60;;;13.83;;
18933;SDS011;9599;53.706;10.384;2023-01-23T14:53:39;22.83;;;13.43;;
18933;SDS011;9599;53.706;10.384;2023-01-23T14:56:10;26.17;;;13.57;;
18933;SDS011;9599;53.706;10.384;2023-01-23T14:58:38;27.07;;;14.40;;
18933;SDS011;9599;53.706;10.384;2023-01-23T15:01:07;28.80;;;14.83;;
18933;SDS011;9599;53.706;10.384;2023-01-23T15:03:38;26.23;;;14.30;;
18933;SDS011;9599;53.706;10.384;2023-01-23T15:06:12;26.20;;;13.77;;
18933;SDS011;9599;53.706;10.384;2023-01-23T15:08:41;26.03;;;13.93;;
18933;SDS011;9599;53.706;10.384;2023-01-23T15:11:11;25.87;;;13.33;;
18933;SDS011;9599;53.706;10.384;2023-01-23T15:13:40;27.73;;;13.60;;
18933;SDS011;9599;53.706;10.384;2023-01-23T15:16:13;26.73;;;13.57;;
18933;SDS011;9599;53.706;10.384;2023-01-23T15:18:48;27.97;;;14.50;;
18933;SDS011;9599;53.706;10.384;2023-01-23T15:21:27;24.93;;;13.60;;
18933;SDS011;9599;53.706;10.384;2023-01-23T15:23:57;22.20;;;12.67;;
18933;SDS011;9599;53.706;10.384;2023-01-23T15:26:32;26.47;;;13.70;;
18933;SDS011;9599;53.706;10.384;2023-01-23T15:29:02;28.87;;;14.73;;
18933;SDS011;9599;53.706;10.384;2023-01-23T15:31:48;32.03;;;14.97;;